메인 페이지
METAR-TAF:

METAR-TAF

공항 :

Elko, 네바다, 미국

위도: 40-49-30N, 경도: 115-47-30W, 고도: 1568m

현재 날씨관측

예보는 15분 전, 02:56시(UTC)에 발표되었습니다.
남남서8kt
온도 27°C
습도 26%
기압 1017 hPa
시정: 16.1km
맑음

METAR: KEKO 150256Z AUTO 21008KT 10SM CLR 27/06 A3003 RMK AO2 SLP109 60000 T02720056 51012

시각: 20:11 (03:11 UTC)

예보

예보는 2 시간 56분 전, 00:15시(UTC)에 발표되었습니다.
예보 대상 시간: 15일 00시부터 15일 24시까지 (UTC)
북서11kt
시정: 10km
고도 12000ft 상공 구름 조금
고도 25000ft 상공 구름 많음
15일 0300시부터 (UTC)
여러 방향의 바람 5kt
시정: 10km
고도 10000ft 상공 구름 조금
고도 15000ft 상공 구름 많음
15일 1900시부터 (UTC)
남남서9kt
시정: 10km
고도 9000ft 상공 구름 많음, 적란운.
시계 내 뇌우

TAF: KEKO 150015Z 1500/1524 31011KT P6SM FEW120 BKN250 FM150300 VRB05KT P6SM FEW100 BKN150 FM151900 20009KT P6SM VCTS BKN090CB

4,000개 이상의 공항 관측 자료 및 예보 (METAR 및 TAF 보고).

지도상에서 검색 가능한 기상관측소가 노란 점과 빨간 점으로 표시되어 있습니다.

기상관측소 명을 보려면 표시 위로 마우스를 이동하세요.

날씨 관측과 예보를 보려면 클릭하세요.

지도 변경 : 확대하려면 엑스 표시가 있는 녹색 버튼, 축소하려면 빼기 표시가 있는 녹색 버튼, 다음 페이지의 지도를 보려면 녹색 화살표를 클릭하세요.


METAR-TAF: